sensor_id;sensor_type;location;lat;lon;timestamp;temperature;humidity
30097;DHT22;16915;51.466;3.610;2024-03-02T00:01:09;5.50;99.90
30097;DHT22;16915;51.466;3.610;2024-03-02T00:03:37;5.50;99.90
30097;DHT22;16915;51.466;3.610;2024-03-02T00:06:03;5.50;99.90
30097;DHT22;16915;51.466;3.610;2024-03-02T00:08:29;5.50;99.90
30097;DHT22;16915;51.466;3.610;2024-03-02T00:10:59;5.50;99.90
30097;DHT22;16915;51.466;3.610;2024-03-02T00:13:25;5.50;99.90
30097;DHT22;16915;51.466;3.610;2024-03-02T00:15:55;5.60;99.90
30097;DHT22;16915;51.466;3.610;2024-03-02T00:18:35;5.60;99.90
30097;DHT22;16915;51.466;3.610;2024-03-02T00:21:01;5.50;99.90
30097;DHT22;16915;51.466;3.610;2024-03-02T00:23:29;5.50;99.90
30097;DHT22;16915;51.466;3.610;2024-03-02T00:25:56;5.60;99.90
30097;DHT22;16915;51.466;3.610;2024-03-02T00:28:33;5.60;99.90
30097;DHT22;16915;51.466;3.610;2024-03-02T00:33:31;5.60;99.90
30097;DHT22;16915;51.466;3.610;2024-03-02T00:35:57;5.50;99.90
30097;DHT22;16915;51.466;3.610;2024-03-02T00:38:24;5.60;99.90
30097;DHT22;16915;51.466;3.610;2024-03-02T00:40:50;5.50;99.90
30097;DHT22;16915;51.466;3.610;2024-03-02T00:43:41;5.60;99.90
30097;DHT22;16915;51.466;3.610;2024-03-02T00:46:07;5.60;99.90
30097;DHT22;16915;51.466;3.610;2024-03-02T00:48:33;5.60;99.90
30097;DHT22;16915;51.466;3.610;2024-03-02T00:51:01;5.60;99.90
30097;DHT22;16915;51.466;3.610;2024-03-02T00:53:29;5.60;99.90
30097;DHT22;16915;51.466;3.610;2024-03-02T00:55:56;5.60;99.90
30097;DHT22;16915;51.466;3.610;2024-03-02T00:58:22;5.50;99.90
30097;DHT22;16915;51.466;3.610;2024-03-02T01:00:47;5.50;99.90
30097;DHT22;16915;51.466;3.610;2024-03-02T01:03:13;5.50;99.90
30097;DHT22;16915;51.466;3.610;2024-03-02T01:05:42;5.50;99.90
30097;DHT22;16915;51.466;3.610;2024-03-02T01:08:11;5.50;99.90
30097;DHT22;16915;51.466;3.610;2024-03-02T01:10:37;5.40;99.90
30097;DHT22;16915;51.466;3.610;2024-03-02T01:13:02;5.40;99.90
30097;DHT22;16915;51.466;3.610;2024-03-02T01:15:28;5.40;99.90
30097;DHT22;16915;51.466;3.610;2024-03-02T01:17:54;5.40;99.90
30097;DHT22;16915;51.466;3.610;2024-03-02T01:20:19;5.40;99.90
30097;DHT22;16915;51.466;3.610;2024-03-02T01:22:45;5.40;99.90
30097;DHT22;16915;51.466;3.610;2024-03-02T01:25:10;5.40;99.90
30097;DHT22;16915;51.466;3.610;2024-03-02T01:27:36;5.40;99.90
30097;DHT22;16915;51.466;3.610;2024-03-02T01:30:02;5.40;99.90
30097;DHT22;16915;51.466;3.610;2024-03-02T01:32:27;5.40;99.90
30097;DHT22;16915;51.466;3.610;2024-03-02T01:34:53;5.40;99.90
30097;DHT22;16915;51.466;3.610;2024-03-02T01:37:19;5.40;99.90
30097;DHT22;16915;51.466;3.610;2024-03-02T01:39:44;5.40;99.90
30097;DHT22;16915;51.466;3.610;2024-03-02T01:42:10;5.40;99.90
30097;DHT22;16915;51.466;3.610;2024-03-02T01:44:40;5.40;99.90
30097;DHT22;16915;51.466;3.610;2024-03-02T01:47:05;5.40;99.90
30097;DHT22;16915;51.466;3.610;2024-03-02T01:49:31;5.40;99.90
30097;DHT22;16915;51.466;3.610;2024-03-02T01:51:58;5.40;99.90
30097;DHT22;16915;51.466;3.610;2024-03-02T01:54:23;5.40;99.90
30097;DHT22;16915;51.466;3.610;2024-03-02T01:56:49;5.50;99.90
30097;DHT22;16915;51.466;3.610;2024-03-02T01:59:15;5.50;99.90
30097;DHT22;16915;51.466;3.610;2024-03-02T02:01:40;5.50;99.90
30097;DHT22;16915;51.466;3.610;2024-03-02T02:04:06;5.50;99.90
30097;DHT22;16915;51.466;3.610;2024-03-02T02:06:32;5.50;99.90
30097;DHT22;16915;51.466;3.610;2024-03-02T02:08:58;5.50;99.90
30097;DHT22;16915;51.466;3.610;2024-03-02T02:11:24;5.40;99.90
30097;DHT22;16915;51.466;3.610;2024-03-02T02:13:50;5.40;99.90
30097;DHT22;16915;51.466;3.610;2024-03-02T02:16:16;5.40;99.90
30097;DHT22;16915;51.466;3.610;2024-03-02T02:18:41;5.40;99.90
30097;DHT22;16915;51.466;3.610;2024-03-02T02:21:07;5.40;99.90
30097;DHT22;16915;51.466;3.610;2024-03-02T02:23:33;5.40;99.90
30097;DHT22;16915;51.466;3.610;2024-03-02T02:25:58;5.30;99.90
30097;DHT22;16915;51.466;3.610;2024-03-02T02:28:24;5.30;99.90
30097;DHT22;16915;51.466;3.610;2024-03-02T02:30:49;5.30;99.90
30097;DHT22;16915;51.466;3.610;2024-03-02T02:33:15;5.30;99.90
30097;DHT22;16915;51.466;3.610;2024-03-02T02:35:41;5.30;99.90
30097;DHT22;16915;51.466;3.610;2024-03-02T02:38:06;5.30;99.90
30097;DHT22;16915;51.466;3.610;2024-03-02T02:40:32;5.30;99.90
30097;DHT22;16915;51.466;3.610;2024-03-02T02:42:58;5.20;99.90
30097;DHT22;16915;51.466;3.610;2024-03-02T02:45:27;5.20;99.90
30097;DHT22;16915;51.466;3.610;2024-03-02T02:47:52;5.20;99.90
30097;DHT22;16915;51.466;3.610;2024-03-02T02:50:18;5.10;99.90
30097;DHT22;16915;51.466;3.610;2024-03-02T02:52:43;5.10;99.90
30097;DHT22;16915;51.466;3.610;2024-03-02T02:55:10;5.10;99.90
30097;DHT22;16915;51.466;3.610;2024-03-02T02:57:37;5.10;99.90
30097;DHT22;16915;51.466;3.610;2024-03-02T03:00:12;5.10;99.90
30097;DHT22;16915;51.466;3.610;2024-03-02T03:02:42;5.10;99.90
30097;DHT22;16915;51.466;3.610;2024-03-02T03:05:13;5.10;99.90
30097;DHT22;16915;51.466;3.610;2024-03-02T03:07:40;5.10;99.90
30097;DHT22;16915;51.466;3.610;2024-03-02T03:10:06;5.10;99.90
30097;DHT22;16915;51.466;3.610;2024-03-02T03:12:33;5.20;99.90
30097;DHT22;16915;51.466;3.610;2024-03-02T03:14:59;5.20;99.90
30097;DHT22;16915;51.466;3.610;2024-03-02T03:17:25;5.30;99.90
30097;DHT22;16915;51.466;3.610;2024-03-02T03:19:51;5.30;99.90
30097;DHT22;16915;51.466;3.610;2024-03-02T03:22:17;5.30;99.90
30097;DHT22;16915;51.466;3.610;2024-03-02T03:24:42;5.40;99.90
30097;DHT22;16915;51.466;3.610;2024-03-02T03:27:08;5.40;99.90
30097;DHT22;16915;51.466;3.610;2024-03-02T03:29:36;5.40;99.90
30097;DHT22;16915;51.466;3.610;2024-03-02T03:32:01;5.40;99.90
30097;DHT22;16915;51.466;3.610;2024-03-02T03:34:27;5.40;99.90
30097;DHT22;16915;51.466;3.610;2024-03-02T03:36:54;5.30;99.90
30097;DHT22;16915;51.466;3.610;2024-03-02T03:39:20;5.30;99.90
30097;DHT22;16915;51.466;3.610;2024-03-02T03:41:45;5.20;99.90
30097;DHT22;16915;51.466;3.610;2024-03-02T03:44:11;5.20;99.90
30097;DHT22;16915;51.466;3.610;2024-03-02T03:46:36;5.10;99.90
30097;DHT22;16915;51.466;3.610;2024-03-02T03:49:02;5.10;99.90
30097;DHT22;16915;51.466;3.610;2024-03-02T03:51:29;5.10;99.90
30097;DHT22;16915;51.466;3.610;2024-03-02T03:53:55;5.10;99.90
30097;DHT22;16915;51.466;3.610;2024-03-02T03:56:21;5.10;99.90
30097;DHT22;16915;51.466;3.610;2024-03-02T03:58:46;5.10;99.90
30097;DHT22;16915;51.466;3.610;2024-03-02T04:01:12;5.10;99.90
30097;DHT22;16915;51.466;3.610;2024-03-02T04:03:38;5.00;99.90
30097;DHT22;16915;51.466;3.610;2024-03-02T04:06:04;5.00;99.90
30097;DHT22;16915;51.466;3.610;2024-03-02T04:08:29;5.00;99.90
30097;DHT22;16915;51.466;3.610;2024-03-02T04:10:55;5.00;99.90
30097;DHT22;16915;51.466;3.610;2024-03-02T04:13:21;5.00;99.90
30097;DHT22;16915;51.466;3.610;2024-03-02T04:15:46;5.00;99.90
30097;DHT22;16915;51.466;3.610;2024-03-02T04:18:12;5.00;99.90
30097;DHT22;16915;51.466;3.610;2024-03-02T04:20:38;5.00;99.90
30097;DHT22;16915;51.466;3.610;2024-03-02T04:23:03;5.00;99.90
30097;DHT22;16915;51.466;3.610;2024-03-02T04:25:29;5.00;99.90
30097;DHT22;16915;51.466;3.610;2024-03-02T04:27:55;5.00;99.90
30097;DHT22;16915;51.466;3.610;2024-03-02T04:30:20;5.00;99.90
30097;DHT22;16915;51.466;3.610;2024-03-02T04:32:46;5.00;99.90
30097;DHT22;16915;51.466;3.610;2024-03-02T04:35:12;5.00;99.90
30097;DHT22;16915;51.466;3.610;2024-03-02T04:37:38;5.00;99.90
30097;DHT22;16915;51.466;3.610;2024-03-02T04:40:04;5.00;99.90
30097;DHT22;16915;51.466;3.610;2024-03-02T04:42:33;5.00;99.90
30097;DHT22;16915;51.466;3.610;2024-03-02T04:44:59;5.00;99.90
30097;DHT22;16915;51.466;3.610;2024-03-02T04:47:24;4.90;99.90
30097;DHT22;16915;51.466;3.610;2024-03-02T04:49:50;5.00;99.90
30097;DHT22;16915;51.466;3.610;2024-03-02T04:52:16;5.10;99.90
30097;DHT22;16915;51.466;3.610;2024-03-02T04:54:42;5.10;99.90
30097;DHT22;16915;51.466;3.610;2024-03-02T04:57:26;5.20;99.90
30097;DHT22;16915;51.466;3.610;2024-03-02T04:59:51;5.20;99.90
30097;DHT22;16915;51.466;3.610;2024-03-02T05:02:17;5.20;99.90
30097;DHT22;16915;51.466;3.610;2024-03-02T05:04:42;5.20;99.90
30097;DHT22;16915;51.466;3.610;2024-03-02T05:07:08;5.20;99.90
30097;DHT22;16915;51.466;3.610;2024-03-02T05:09:33;5.20;99.90
30097;DHT22;16915;51.466;3.610;2024-03-02T05:11:59;5.20;99.90
30097;DHT22;16915;51.466;3.610;2024-03-02T05:14:42;5.30;99.90
30097;DHT22;16915;51.466;3.610;2024-03-02T05:17:08;5.30;99.90
30097;DHT22;16915;51.466;3.610;2024-03-02T05:19:33;5.20;99.90
30097;DHT22;16915;51.466;3.610;2024-03-02T05:21:59;5.20;99.90
30097;DHT22;16915;51.466;3.610;2024-03-02T05:24:25;5.20;99.90
30097;DHT22;16915;51.466;3.610;2024-03-02T05:26:53;5.10;99.90
30097;DHT22;16915;51.466;3.610;2024-03-02T05:29:18;5.10;99.90
30097;DHT22;16915;51.466;3.610;2024-03-02T05:31:44;5.10;99.90
30097;DHT22;16915;51.466;3.610;2024-03-02T05:34:09;5.10;99.90
30097;DHT22;16915;51.466;3.610;2024-03-02T05:36:35;5.10;99.90
30097;DHT22;16915;51.466;3.610;2024-03-02T05:39:01;5.10;99.90
30097;DHT22;16915;51.466;3.610;2024-03-02T05:41:27;5.10;99.90
30097;DHT22;16915;51.466;3.610;2024-03-02T05:43:53;5.10;99.90
30097;DHT22;16915;51.466;3.610;2024-03-02T05:46:18;5.10;99.90
30097;DHT22;16915;51.466;3.610;2024-03-02T05:48:44;5.10;99.90
30097;DHT22;16915;51.466;3.610;2024-03-02T05:51:09;5.00;99.90
30097;DHT22;16915;51.466;3.610;2024-03-02T05:53:35;5.00;99.90
30097;DHT22;16915;51.466;3.610;2024-03-02T05:56:04;5.00;99.90
30097;DHT22;16915;51.466;3.610;2024-03-02T05:58:30;5.00;99.90
30097;DHT22;16915;51.466;3.610;2024-03-02T06:01:14;5.00;99.90
30097;DHT22;16915;51.466;3.610;2024-03-02T06:03:40;5.00;99.90
30097;DHT22;16915;51.466;3.610;2024-03-02T06:06:05;5.00;99.90
30097;DHT22;16915;51.466;3.610;2024-03-02T06:08:31;5.00;99.90
30097;DHT22;16915;51.466;3.610;2024-03-02T06:10:57;5.00;99.90
30097;DHT22;16915;51.466;3.610;2024-03-02T06:13:23;5.00;99.90
30097;DHT22;16915;51.466;3.610;2024-03-02T06:15:50;5.00;99.90
30097;DHT22;16915;51.466;3.610;2024-03-02T06:18:16;5.00;99.90
30097;DHT22;16915;51.466;3.610;2024-03-02T06:20:41;4.90;99.90
30097;DHT22;16915;51.466;3.610;2024-03-02T06:23:08;5.00;99.90
30097;DHT22;16915;51.466;3.610;2024-03-02T06:25:33;5.00;99.90
30097;DHT22;16915;51.466;3.610;2024-03-02T06:27:59;5.00;99.90
30097;DHT22;16915;51.466;3.610;2024-03-02T06:30:24;5.00;99.90
30097;DHT22;16915;51.466;3.610;2024-03-02T06:32:50;5.00;99.90
30097;DHT22;16915;51.466;3.610;2024-03-02T06:35:15;5.00;99.90
30097;DHT22;16915;51.466;3.610;2024-03-02T06:37:41;5.00;99.90
30097;DHT22;16915;51.466;3.610;2024-03-02T06:40:07;4.90;99.90
30097;DHT22;16915;51.466;3.610;2024-03-02T06:42:34;5.00;99.90
30097;DHT22;16915;51.466;3.610;2024-03-02T06:45:00;5.00;99.90
30097;DHT22;16915;51.466;3.610;2024-03-02T06:47:25;4.90;99.90
30097;DHT22;16915;51.466;3.610;2024-03-02T06:49:51;4.90;99.90
30097;DHT22;16915;51.466;3.610;2024-03-02T06:52:17;4.90;99.90
30097;DHT22;16915;51.466;3.610;2024-03-02T06:54:42;4.90;99.90
30097;DHT22;16915;51.466;3.610;2024-03-02T06:57:08;4.90;99.90
30097;DHT22;16915;51.466;3.610;2024-03-02T06:59:33;4.90;99.90
30097;DHT22;16915;51.466;3.610;2024-03-02T07:01:59;4.90;99.90
30097;DHT22;16915;51.466;3.610;2024-03-02T07:04:25;4.90;99.90
30097;DHT22;16915;51.466;3.610;2024-03-02T07:06:50;5.00;99.90
30097;DHT22;16915;51.466;3.610;2024-03-02T07:09:16;5.00;99.90
30097;DHT22;16915;51.466;3.610;2024-03-02T07:11:42;5.00;99.90
30097;DHT22;16915;51.466;3.610;2024-03-02T07:14:08;5.00;99.90
30097;DHT22;16915;51.466;3.610;2024-03-02T07:16:34;5.10;99.90
30097;DHT22;16915;51.466;3.610;2024-03-02T07:19:00;5.10;99.90
30097;DHT22;16915;51.466;3.610;2024-03-02T07:21:27;5.10;99.90
30097;DHT22;16915;51.466;3.610;2024-03-02T07:23:53;5.20;99.90
30097;DHT22;16915;51.466;3.610;2024-03-02T07:26:19;5.20;99.90
30097;DHT22;16915;51.466;3.610;2024-03-02T07:28:46;5.20;99.90
30097;DHT22;16915;51.466;3.610;2024-03-02T07:31:13;5.20;99.90
30097;DHT22;16915;51.466;3.610;2024-03-02T07:33:39;5.30;99.90
30097;DHT22;16915;51.466;3.610;2024-03-02T07:36:05;5.30;99.90
30097;DHT22;16915;51.466;3.610;2024-03-02T07:38:31;5.40;99.90
30097;DHT22;16915;51.466;3.610;2024-03-02T07:40:58;5.40;99.90
30097;DHT22;16915;51.466;3.610;2024-03-02T07:43:23;5.40;99.90
30097;DHT22;16915;51.466;3.610;2024-03-02T07:45:49;5.50;99.90
30097;DHT22;16915;51.466;3.610;2024-03-02T07:48:15;5.50;99.90
30097;DHT22;16915;51.466;3.610;2024-03-02T07:50:40;5.60;99.90
30097;DHT22;16915;51.466;3.610;2024-03-02T07:53:06;5.60;99.90
30097;DHT22;16915;51.466;3.610;2024-03-02T07:55:33;5.70;99.90
30097;DHT22;16915;51.466;3.610;2024-03-02T07:58:00;5.70;99.90
30097;DHT22;16915;51.466;3.610;2024-03-02T08:00:26;5.80;99.90
30097;DHT22;16915;51.466;3.610;2024-03-02T08:02:53;5.80;99.90
30097;DHT22;16915;51.466;3.610;2024-03-02T08:05:19;5.90;99.90
30097;DHT22;16915;51.466;3.610;2024-03-02T08:07:45;5.90;99.90
30097;DHT22;16915;51.466;3.610;2024-03-02T08:10:11;5.90;99.90
30097;DHT22;16915;51.466;3.610;2024-03-02T08:12:36;6.00;99.90
30097;DHT22;16915;51.466;3.610;2024-03-02T08:15:02;5.90;99.90
30097;DHT22;16915;51.466;3.610;2024-03-02T08:17:28;6.00;99.90
30097;DHT22;16915;51.466;3.610;2024-03-02T08:19:54;6.00;99.90
30097;DHT22;16915;51.466;3.610;2024-03-02T08:22:19;6.10;99.90
30097;DHT22;16915;51.466;3.610;2024-03-02T08:24:45;6.10;99.90
30097;DHT22;16915;51.466;3.610;2024-03-02T08:27:11;6.10;99.90
30097;DHT22;16915;51.466;3.610;2024-03-02T08:29:37;6.20;99.90
30097;DHT22;16915;51.466;3.610;2024-03-02T08:32:03;6.30;99.90
30097;DHT22;16915;51.466;3.610;2024-03-02T08:34:29;6.30;99.90
30097;DHT22;16915;51.466;3.610;2024-03-02T08:36:54;6.40;99.90
30097;DHT22;16915;51.466;3.610;2024-03-02T08:39:20;6.50;99.90
30097;DHT22;16915;51.466;3.610;2024-03-02T08:41:46;6.50;99.90
30097;DHT22;16915;51.466;3.610;2024-03-02T08:44:12;6.60;99.90
30097;DHT22;16915;51.466;3.610;2024-03-02T08:46:39;6.70;99.90
30097;DHT22;16915;51.466;3.610;2024-03-02T08:49:05;6.80;99.90
30097;DHT22;16915;51.466;3.610;2024-03-02T08:51:31;6.90;99.90
30097;DHT22;16915;51.466;3.610;2024-03-02T08:53:57;7.00;99.90
30097;DHT22;16915;51.466;3.610;2024-03-02T08:56:23;7.00;99.90
30097;DHT22;16915;51.466;3.610;2024-03-02T08:58:50;7.10;99.90
30097;DHT22;16915;51.466;3.610;2024-03-02T09:01:16;7.20;99.90
30097;DHT22;16915;51.466;3.610;2024-03-02T09:03:42;7.20;99.90
30097;DHT22;16915;51.466;3.610;2024-03-02T09:06:13;7.30;99.90
30097;DHT22;16915;51.466;3.610;2024-03-02T09:08:39;7.30;99.90
30097;DHT22;16915;51.466;3.610;2024-03-02T09:11:06;7.40;99.90
30097;DHT22;16915;51.466;3.610;2024-03-02T09:13:32;7.50;99.90
30097;DHT22;16915;51.466;3.610;2024-03-02T09:15:58;7.50;99.90
30097;DHT22;16915;51.466;3.610;2024-03-02T09:18:24;7.60;99.90
30097;DHT22;16915;51.466;3.610;2024-03-02T09:20:49;7.50;99.90
30097;DHT22;16915;51.466;3.610;2024-03-02T09:23:15;7.60;99.90
30097;DHT22;16915;51.466;3.610;2024-03-02T09:25:40;7.60;99.90
30097;DHT22;16915;51.466;3.610;2024-03-02T09:28:06;7.60;99.90
30097;DHT22;16915;51.466;3.610;2024-03-02T09:30:33;7.80;99.90
30097;DHT22;16915;51.466;3.610;2024-03-02T09:32:58;8.00;99.90
30097;DHT22;16915;51.466;3.610;2024-03-02T09:35:24;8.00;99.90
30097;DHT22;16915;51.466;3.610;2024-03-02T09:37:50;8.10;99.90
30097;DHT22;16915;51.466;3.610;2024-03-02T09:40:16;8.00;99.90
30097;DHT22;16915;51.466;3.610;2024-03-02T09:42:42;8.00;99.90
30097;DHT22;16915;51.466;3.610;2024-03-02T09:45:09;8.00;99.90
30097;DHT22;16915;51.466;3.610;2024-03-02T09:47:34;8.10;99.90
30097;DHT22;16915;51.466;3.610;2024-03-02T09:50:00;8.20;99.90
30097;DHT22;16915;51.466;3.610;2024-03-02T09:52:26;8.30;99.90
30097;DHT22;16915;51.466;3.610;2024-03-02T09:54:52;8.50;99.90
30097;DHT22;16915;51.466;3.610;2024-03-02T09:57:17;8.70;99.90
30097;DHT22;16915;51.466;3.610;2024-03-02T09:59:43;8.80;99.90
30097;DHT22;16915;51.466;3.610;2024-03-02T10:02:10;8.90;99.90
30097;DHT22;16915;51.466;3.610;2024-03-02T10:04:36;9.10;99.90
30097;DHT22;16915;51.466;3.610;2024-03-02T10:07:18;9.30;99.90
30097;DHT22;16915;51.466;3.610;2024-03-02T10:09:48;9.40;99.90
30097;DHT22;16915;51.466;3.610;2024-03-02T10:12:16;9.50;99.90
30097;DHT22;16915;51.466;3.610;2024-03-02T10:14:42;9.60;99.90
30097;DHT22;16915;51.466;3.610;2024-03-02T10:17:09;9.60;99.90
30097;DHT22;16915;51.466;3.610;2024-03-02T10:19:35;9.70;99.90
30097;DHT22;16915;51.466;3.610;2024-03-02T10:22:03;9.90;99.90
30097;DHT22;16915;51.466;3.610;2024-03-02T10:24:39;10.10;99.90
30097;DHT22;16915;51.466;3.610;2024-03-02T10:27:10;10.30;99.90
30097;DHT22;16915;51.466;3.610;2024-03-02T10:29:39;10.70;99.90
30097;DHT22;16915;51.466;3.610;2024-03-02T10:32:05;11.00;99.90
30097;DHT22;16915;51.466;3.610;2024-03-02T10:34:33;11.10;99.90
30097;DHT22;16915;51.466;3.610;2024-03-02T10:36:59;11.30;99.90
30097;DHT22;16915;51.466;3.610;2024-03-02T10:39:25;11.70;99.90
30097;DHT22;16915;51.466;3.610;2024-03-02T10:41:52;12.00;99.90
30097;DHT22;16915;51.466;3.610;2024-03-02T10:44:19;11.90;99.90
30097;DHT22;16915;51.466;3.610;2024-03-02T10:46:45;11.70;99.90
30097;DHT22;16915;51.466;3.610;2024-03-02T10:49:12;11.60;99.90
30097;DHT22;16915;51.466;3.610;2024-03-02T10:51:38;11.40;99.90
30097;DHT22;16915;51.466;3.610;2024-03-02T10:54:04;11.10;99.90
30097;DHT22;16915;51.466;3.610;2024-03-02T10:56:40;10.80;99.90
30097;DHT22;16915;51.466;3.610;2024-03-02T11:01:56;10.50;99.90
30097;DHT22;16915;51.466;3.610;2024-03-02T11:04:24;10.50;99.90
30097;DHT22;16915;51.466;3.610;2024-03-02T11:06:51;10.50;99.90
30097;DHT22;16915;51.466;3.610;2024-03-02T11:09:21;10.40;99.90
30097;DHT22;16915;51.466;3.610;2024-03-02T11:14:41;10.20;99.90
30097;DHT22;16915;51.466;3.610;2024-03-02T11:17:11;10.10;99.90
30097;DHT22;16915;51.466;3.610;2024-03-02T11:19:40;10.00;99.90
30097;DHT22;16915;51.466;3.610;2024-03-02T11:22:07;10.00;99.90
30097;DHT22;16915;51.466;3.610;2024-03-02T11:24:33;10.00;99.90
30097;DHT22;16915;51.466;3.610;2024-03-02T11:27:00;10.10;99.90
30097;DHT22;16915;51.466;3.610;2024-03-02T11:32:02;10.10;99.90
30097;DHT22;16915;51.466;3.610;2024-03-02T11:34:35;10.30;99.90
30097;DHT22;16915;51.466;3.610;2024-03-02T11:37:04;10.40;99.90
30097;DHT22;16915;51.466;3.610;2024-03-02T11:39:30;10.70;99.90
30097;DHT22;16915;51.466;3.610;2024-03-02T11:41:57;11.10;99.90
30097;DHT22;16915;51.466;3.610;2024-03-02T11:44:29;11.60;99.90
30097;DHT22;16915;51.466;3.610;2024-03-02T11:46:59;12.00;99.90
30097;DHT22;16915;51.466;3.610;2024-03-02T11:49:38;12.20;99.90
30097;DHT22;16915;51.466;3.610;2024-03-02T11:52:05;12.20;99.90
30097;DHT22;16915;51.466;3.610;2024-03-02T11:54:36;12.40;99.90
30097;DHT22;16915;51.466;3.610;2024-03-02T11:57:05;12.40;99.90
30097;DHT22;16915;51.466;3.610;2024-03-02T11:59:32;12.50;99.90
30097;DHT22;16915;51.466;3.610;2024-03-02T12:01:58;12.40;99.90
30097;DHT22;16915;51.466;3.610;2024-03-02T12:04:24;12.20;99.90
30097;DHT22;16915;51.466;3.610;2024-03-02T12:06:58;12.10;99.90
30097;DHT22;16915;51.466;3.610;2024-03-02T12:09:28;11.90;99.90
30097;DHT22;16915;51.466;3.610;2024-03-02T12:12:09;11.70;99.90
30097;DHT22;16915;51.466;3.610;2024-03-02T12:14:37;11.50;99.90
30097;DHT22;16915;51.466;3.610;2024-03-02T12:17:03;11.40;99.90
30097;DHT22;16915;51.466;3.610;2024-03-02T12:19:30;11.40;99.90
30097;DHT22;16915;51.466;3.610;2024-03-02T12:21:57;11.30;99.90
30097;DHT22;16915;51.466;3.610;2024-03-02T12:24:23;11.30;99.90
30097;DHT22;16915;51.466;3.610;2024-03-02T12:26:50;11.30;99.90
30097;DHT22;16915;51.466;3.610;2024-03-02T12:29:16;11.30;99.90
30097;DHT22;16915;51.466;3.610;2024-03-02T12:31:43;11.20;99.90
30097;DHT22;16915;51.466;3.610;2024-03-02T12:34:13;11.10;99.90
30097;DHT22;16915;51.466;3.610;2024-03-02T12:36:39;11.00;99.90
30097;DHT22;16915;51.466;3.610;2024-03-02T12:39:07;10.90;99.90
30097;DHT22;16915;51.466;3.610;2024-03-02T12:41:36;10.80;99.90
30097;DHT22;16915;51.466;3.610;2024-03-02T12:44:02;10.80;99.90
30097;DHT22;16915;51.466;3.610;2024-03-02T12:46:27;10.70;99.90
30097;DHT22;16915;51.466;3.610;2024-03-02T12:48:53;10.60;99.90
30097;DHT22;16915;51.466;3.610;2024-03-02T12:51:19;10.60;99.90
30097;DHT22;16915;51.466;3.610;2024-03-02T12:53:45;10.50;99.90
30097;DHT22;16915;51.466;3.610;2024-03-02T12:56:10;10.50;99.90
30097;DHT22;16915;51.466;3.610;2024-03-02T12:58:40;10.30;99.90
30097;DHT22;16915;51.466;3.610;2024-03-02T13:01:11;10.20;99.90
30097;DHT22;16915;51.466;3.610;2024-03-02T13:03:39;10.10;99.90
30097;DHT22;16915;51.466;3.610;2024-03-02T13:06:08;10.00;99.90
30097;DHT22;16915;51.466;3.610;2024-03-02T13:08:34;10.00;99.90
30097;DHT22;16915;51.466;3.610;2024-03-02T13:11:00;9.90;99.90
30097;DHT22;16915;51.466;3.610;2024-03-02T13:13:26;9.80;99.90
30097;DHT22;16915;51.466;3.610;2024-03-02T13:15:55;9.80;99.90
30097;DHT22;16915;51.466;3.610;2024-03-02T13:18:21;9.80;99.90
30097;DHT22;16915;51.466;3.610;2024-03-02T13:20:47;9.70;99.90
30097;DHT22;16915;51.466;3.610;2024-03-02T13:23:13;9.60;99.90
30097;DHT22;16915;51.466;3.610;2024-03-02T13:25:39;9.50;99.90
30097;DHT22;16915;51.466;3.610;2024-03-02T13:28:05;9.40;99.90
30097;DHT22;16915;51.466;3.610;2024-03-02T13:30:32;9.30;99.90
30097;DHT22;16915;51.466;3.610;2024-03-02T13:32:58;9.20;99.90
30097;DHT22;16915;51.466;3.610;2024-03-02T13:35:23;9.20;99.90
30097;DHT22;16915;51.466;3.610;2024-03-02T13:37:49;9.10;99.90
30097;DHT22;16915;51.466;3.610;2024-03-02T13:40:16;9.00;99.90
30097;DHT22;16915;51.466;3.610;2024-03-02T13:42:48;9.00;99.90
30097;DHT22;16915;51.466;3.610;2024-03-02T13:45:14;8.90;99.90
30097;DHT22;16915;51.466;3.610;2024-03-02T13:47:40;8.90;99.90
30097;DHT22;16915;51.466;3.610;2024-03-02T13:50:06;8.90;99.90
30097;DHT22;16915;51.466;3.610;2024-03-02T13:52:32;8.80;99.90
30097;DHT22;16915;51.466;3.610;2024-03-02T13:54:58;8.80;99.90
30097;DHT22;16915;51.466;3.610;2024-03-02T13:57:23;8.80;99.90
30097;DHT22;16915;51.466;3.610;2024-03-02T13:59:49;8.80;99.90
30097;DHT22;16915;51.466;3.610;2024-03-02T14:02:15;8.80;99.90
30097;DHT22;16915;51.466;3.610;2024-03-02T14:04:41;8.80;99.90
30097;DHT22;16915;51.466;3.610;2024-03-02T14:07:07;8.80;99.90
30097;DHT22;16915;51.466;3.610;2024-03-02T14:09:32;8.80;99.90
30097;DHT22;16915;51.466;3.610;2024-03-02T14:11:58;8.90;99.90
30097;DHT22;16915;51.466;3.610;2024-03-02T14:14:26;8.90;99.90
30097;DHT22;16915;51.466;3.610;2024-03-02T14:16:52;8.80;99.90
30097;DHT22;16915;51.466;3.610;2024-03-02T14:19:18;8.80;99.90
30097;DHT22;16915;51.466;3.610;2024-03-02T14:21:44;8.80;99.90
30097;DHT22;16915;51.466;3.610;2024-03-02T14:24:10;8.70;99.90
30097;DHT22;16915;51.466;3.610;2024-03-02T14:26:36;8.70;99.90
30097;DHT22;16915;51.466;3.610;2024-03-02T14:29:02;8.70;99.90
30097;DHT22;16915;51.466;3.610;2024-03-02T14:31:31;8.60;99.90
30097;DHT22;16915;51.466;3.610;2024-03-02T14:33:57;8.70;99.90
30097;DHT22;16915;51.466;3.610;2024-03-02T14:36:23;8.70;99.90
30097;DHT22;16915;51.466;3.610;2024-03-02T14:38:49;8.60;99.90
30097;DHT22;16915;51.466;3.610;2024-03-02T14:41:15;8.60;99.90
30097;DHT22;16915;51.466;3.610;2024-03-02T14:43:40;8.60;99.90
30097;DHT22;16915;51.466;3.610;2024-03-02T14:46:06;8.60;99.90
30097;DHT22;16915;51.466;3.610;2024-03-02T14:48:36;8.60;99.90
30097;DHT22;16915;51.466;3.610;2024-03-02T14:51:02;8.60;99.90
30097;DHT22;16915;51.466;3.610;2024-03-02T14:53:27;8.60;99.90
30097;DHT22;16915;51.466;3.610;2024-03-02T14:55:53;8.60;99.90
30097;DHT22;16915;51.466;3.610;2024-03-02T14:58:19;8.60;99.90
30097;DHT22;16915;51.466;3.610;2024-03-02T15:00:45;8.70;99.90
30097;DHT22;16915;51.466;3.610;2024-03-02T15:03:10;8.70;99.90
30097;DHT22;16915;51.466;3.610;2024-03-02T15:05:37;8.70;99.90
30097;DHT22;16915;51.466;3.610;2024-03-02T15:08:03;8.70;99.90
30097;DHT22;16915;51.466;3.610;2024-03-02T15:10:30;8.70;99.90
30097;DHT22;16915;51.466;3.610;2024-03-02T15:12:56;8.70;99.90
30097;DHT22;16915;51.466;3.610;2024-03-02T15:15:21;8.70;99.90
30097;DHT22;16915;51.466;3.610;2024-03-02T15:17:47;8.70;99.90
30097;DHT22;16915;51.466;3.610;2024-03-02T15:20:13;8.80;99.90
30097;DHT22;16915;51.466;3.610;2024-03-02T15:22:38;8.90;99.90
30097;DHT22;16915;51.466;3.610;2024-03-02T15:25:11;8.90;99.90
30097;DHT22;16915;51.466;3.610;2024-03-02T15:27:37;9.00;99.90
30097;DHT22;16915;51.466;3.610;2024-03-02T15:30:03;9.20;99.90
30097;DHT22;16915;51.466;3.610;2024-03-02T15:32:28;9.30;99.90
30097;DHT22;16915;51.466;3.610;2024-03-02T15:34:54;9.30;99.90
30097;DHT22;16915;51.466;3.610;2024-03-02T15:37:20;9.30;99.90
30097;DHT22;16915;51.466;3.610;2024-03-02T15:39:45;9.40;99.90
30097;DHT22;16915;51.466;3.610;2024-03-02T15:42:12;9.40;99.90
30097;DHT22;16915;51.466;3.610;2024-03-02T15:44:38;9.50;99.90
30097;DHT22;16915;51.466;3.610;2024-03-02T15:47:04;9.50;99.90
30097;DHT22;16915;51.466;3.610;2024-03-02T15:49:29;9.50;99.90